Time;durP1;ratioP1;P1;durP2;ratioP2;P2;SDS_P1;SDS_P2;PMS_P1;PMS_P2;Temp;Humidity;BMP_temperature;BMP_pressure;BME280_temperature;BME280_humidity;BME280_pressure;Samples;Min_cycle;Max_cycle;Signal;HPM_P1;HPM_P2
2021/08/20 00:00:19;;;;;;;6.60;3.15;;;14.70;99.90;;;15.20;100.00;95101.00;2348632;57;27192;-55
2021/08/20 00:03:06;;;;;;;6.25;3.60;;;14.70;99.90;;;15.27;100.00;95102.00;2139837;58;26795;-55
2021/08/20 00:05:52;;;;;;;4.30;3.53;;;14.80;99.90;;;15.27;100.00;95102.00;2350598;57;26747;-56
2021/08/20 00:08:39;;;;;;;4.28;3.58;;;14.70;99.90;;;15.10;100.00;95100.00;2141308;58;26714;-55
2021/08/20 00:11:25;;;;;;;5.95;3.70;;;14.60;99.90;;;15.03;100.00;95094.00;2349056;57;26746;-56
2021/08/20 00:14:15;;;;;;;4.30;3.37;;;14.60;99.90;;;15.09;100.00;95091.00;2139976;58;26778;-56
2021/08/20 00:17:01;;;;;;;4.32;3.80;;;14.70;99.90;;;15.12;100.00;95083.00;2348232;57;27137;-55
2021/08/20 00:19:48;;;;;;;4.87;2.77;;;14.60;99.90;;;15.05;100.00;95077.00;2122169;58;26124;-55
2021/08/20 00:25:31;;;;;;;5.32;3.50;;;14.70;99.90;;;15.27;100.00;95064.00;2420018;54;34194;-55
2021/08/20 00:31:15;;;;;;;5.53;3.45;;;14.60;99.90;;;15.16;100.00;95068.00;2486253;53;33700;-55
2021/08/20 00:34:02;;;;;;;4.87;3.70;;;14.50;99.90;;;14.95;100.00;95082.00;2263278;53;26721;-56
2021/08/20 00:36:49;;;;;;;5.72;3.10;;;14.50;99.90;;;15.01;100.00;95067.00;2249267;53;26970;-55
2021/08/20 00:39:38;;;;;;;5.32;3.47;;;14.60;99.90;;;15.09;100.00;95078.00;2497440;53;27403;-56
2021/08/20 00:42:25;;;;;;;4.85;3.20;;;14.70;99.90;;;15.15;100.00;95077.00;2255867;54;26624;-56
2021/08/20 00:45:12;;;;;;;4.47;3.20;;;14.60;99.90;;;15.12;100.00;95078.00;2467721;53;26779;-55
2021/08/20 00:47:58;;;;;;;5.78;3.45;;;14.60;99.90;;;15.03;100.00;95079.00;2237646;53;27168;-56
2021/08/20 00:50:45;;;;;;;4.75;3.78;;;14.60;99.90;;;15.02;100.00;95075.00;2497198;53;26170;-55
2021/08/20 00:53:33;;;;;;;3.87;3.10;;;14.60;99.90;;;15.12;100.00;95081.00;2270357;53;26664;-55
2021/08/20 00:56:20;;;;;;;5.00;3.47;;;14.70;99.90;;;15.12;100.00;95078.00;2504675;53;26676;-55
2021/08/20 00:59:07;;;;;;;7.60;3.80;;;14.50;99.90;;;14.92;100.00;95074.00;2270578;54;26667;-55
2021/08/20 01:01:54;;;;;;;4.00;3.45;;;14.50;99.90;;;14.93;100.00;95078.00;2504203;53;26685;-55
2021/08/20 01:04:40;;;;;;;4.95;3.50;;;14.50;99.90;;;14.98;100.00;95076.00;2270324;54;26603;-55
2021/08/20 01:07:28;;;;;;;5.30;3.37;;;14.50;99.90;;;14.97;100.00;95069.00;2505438;53;26722;-56
2021/08/20 01:13:11;;;;;;;3.50;3.15;;;14.60;99.90;;;15.15;100.00;95051.00;2423215;54;34211;-55
2021/08/20 01:15:59;;;;;;;5.57;3.75;;;14.50;99.90;;;14.98;100.00;95068.00;2176238;55;27120;-55
2021/08/20 01:18:45;;;;;;;5.70;3.80;;;14.50;99.90;;;14.88;100.00;95068.00;2402867;55;27370;-56
2021/08/20 01:24:29;;;;;;;4.70;3.92;;;14.30;99.90;;;14.77;100.00;95050.00;2480224;53;33586;-56
2021/08/20 01:27:16;;;;;;;5.60;4.00;;;14.20;99.90;;;14.61;100.00;95069.00;2213618;55;26763;-55
2021/08/20 01:30:04;;;;;;;6.12;4.12;;;14.20;99.90;;;14.50;100.00;95072.00;2433977;55;26752;-56
2021/08/20 01:32:50;;;;;;;5.50;3.97;;;14.10;99.90;;;14.52;100.00;95075.00;2208935;55;26733;-54
2021/08/20 01:35:37;;;;;;;4.78;3.80;;;14.10;99.90;;;14.50;100.00;95073.00;2428390;55;26643;-56
2021/08/20 01:41:24;;;;;;;4.90;3.80;;;14.10;99.90;;;14.62;100.00;95055.00;2416896;55;33668;-56
2021/08/20 01:44:10;;;;;;;4.57;3.60;;;14.20;99.90;;;14.68;100.00;95069.00;2210962;56;26902;-56
2021/08/20 01:46:56;;;;;;;4.22;3.30;;;14.20;99.90;;;14.78;100.00;95068.00;2439481;55;26770;-56
2021/08/20 01:49:43;;;;;;;4.05;3.58;;;14.30;99.90;;;14.76;100.00;95062.00;2237513;55;26648;-56
2021/08/20 01:52:30;;;;;;;5.68;3.70;;;14.20;99.90;;;14.72;100.00;95060.00;2469545;55;26579;-56
2021/08/20 01:55:16;;;;;;;4.62;3.67;;;14.20;99.90;;;14.70;100.00;95057.00;2241328;55;26208;-55
2021/08/20 01:58:03;;;;;;;4.55;3.55;;;14.20;99.90;;;14.68;100.00;95056.00;2469737;54;27282;-56
2021/08/20 02:03:47;;;;;;;5.53;3.70;;;14.00;99.90;;;14.58;100.00;95051.00;2425389;54;35322;-55
2021/08/20 02:06:34;;;;;;;5.30;3.95;;;13.90;99.90;;;14.38;100.00;95059.00;2213880;55;26696;-56
2021/08/20 02:09:20;;;;;;;5.82;3.90;;;13.70;99.90;;;14.11;100.00;95070.00;2467599;54;26796;-56
2021/08/20 02:12:08;;;;;;;5.68;4.43;;;13.60;99.90;;;13.91;100.00;95072.00;2239802;55;27180;-56
2021/08/20 02:14:54;;;;;;;5.40;3.95;;;13.50;99.90;;;13.83;100.00;95077.00;2238484;55;27107;-55
2021/08/20 02:17:41;;;;;;;6.43;3.87;;;13.30;99.90;;;13.76;100.00;95074.00;2436930;54;26555;-55
2021/08/20 02:20:27;;;;;;;4.73;3.77;;;13.30;99.90;;;13.79;100.00;95078.00;2212848;54;26629;-55
2021/08/20 02:23:14;;;;;;;6.80;4.10;;;13.30;99.90;;;13.68;100.00;95080.00;2218249;55;26187;-55
2021/08/20 02:26:00;;;;;;;5.30;4.28;;;13.20;99.90;;;13.56;100.00;95083.00;2216966;55;26804;-55
2021/08/20 02:28:46;;;;;;;5.85;4.28;;;13.10;99.90;;;13.46;100.00;95083.00;2216538;55;27317;-56
2021/08/20 02:31:35;;;;;;;5.43;4.65;;;13.10;99.90;;;13.54;100.00;95075.00;2465504;54;27226;-54
2021/08/20 02:34:23;;;;;;;5.60;4.60;;;13.20;99.90;;;13.67;100.00;95086.00;2470807;54;27387;-56
2021/08/20 02:37:10;;;;;;;9.20;4.72;;;13.30;99.90;;;13.79;100.00;95081.00;2242615;55;27366;-55
2021/08/20 02:39:56;;;;;;;6.80;4.43;;;13.30;99.90;;;13.74;100.00;95086.00;2242021;55;26584;-56
2021/08/20 02:42:43;;;;;;;4.70;4.00;;;13.30;99.90;;;13.72;100.00;95086.00;2470196;54;26671;-55
2021/08/20 02:45:29;;;;;;;7.95;4.05;;;13.40;99.90;;;13.80;100.00;95086.00;2242960;55;27026;-55
2021/08/20 02:48:15;;;;;;;7.20;4.10;;;13.40;99.90;;;13.86;100.00;95079.00;2450279;55;26552;-55
2021/08/20 02:51:02;;;;;;;4.85;3.67;;;13.60;99.90;;;14.09;100.00;95083.00;2465067;55;26204;-55
2021/08/20 02:53:48;;;;;;;5.00;4.00;;;13.70;99.90;;;14.21;100.00;95076.00;2237813;55;26572;-54
2021/08/20 02:56:34;;;;;;;5.95;3.85;;;13.80;99.90;;;14.27;100.00;95077.00;2237461;56;27144;-56
2021/08/20 02:59:21;;;;;;;4.65;4.07;;;13.80;99.90;;;14.34;100.00;95072.00;2237767;55;26949;-56
2021/08/20 03:05:04;;;;;;;7.03;4.03;;;13.80;99.90;;;14.21;100.00;95043.00;2482662;53;34156;-56
2021/08/20 03:07:51;;;;;;;5.95;3.97;;;13.70;99.90;;;14.11;100.00;95069.00;2227428;54;26826;-57
2021/08/20 03:10:37;;;;;;;4.72;3.95;;;13.70;99.90;;;14.10;100.00;95063.00;2447770;54;26770;-56
2021/08/20 03:13:24;;;;;;;5.95;4.03;;;13.70;99.90;;;14.12;100.00;95071.00;2214033;54;26651;-57
2021/08/20 03:16:10;;;;;;;5.00;4.10;;;13.80;99.90;;;14.25;100.00;95069.00;2446244;54;26879;-56
2021/08/20 03:18:57;;;;;;;5.12;3.97;;;13.80;99.90;;;14.37;100.00;95067.00;2233758;54;27088;-56
2021/08/20 03:21:43;;;;;;;6.15;4.20;;;13.90;99.90;;;14.37;100.00;95068.00;2468331;54;26591;-57
2021/08/20 03:24:29;;;;;;;4.47;3.78;;;13.80;99.90;;;14.28;100.00;95063.00;2468452;55;26952;-56
2021/08/20 03:27:16;;;;;;;4.37;3.80;;;13.80;99.90;;;14.26;100.00;95065.00;2239313;55;27450;-56
2021/08/20 03:30:03;;;;;;;5.07;4.00;;;13.80;99.90;;;14.24;100.00;95069.00;2468520;54;26546;-58
2021/08/20 03:32:49;;;;;;;6.30;4.12;;;13.80;99.90;;;14.20;100.00;95066.00;2239663;55;27204;-56
2021/08/20 03:35:36;;;;;;;4.83;4.00;;;13.80;99.90;;;14.18;100.00;95073.00;2467577;55;26583;-56
2021/08/20 03:38:22;;;;;;;4.80;4.28;;;13.70;99.90;;;14.12;100.00;95074.00;2239256;55;26601;-56
2021/08/20 03:41:09;;;;;;;7.70;4.40;;;13.70;99.90;;;14.18;100.00;95083.00;2466757;54;27335;-56
2021/08/20 03:43:55;;;;;;;5.12;4.30;;;13.70;99.90;;;14.17;100.00;95082.00;2238979;54;27191;-56
2021/08/20 03:46:42;;;;;;;7.15;4.03;;;13.70;99.90;;;14.12;100.00;95087.00;2467673;55;26745;-57
2021/08/20 03:49:28;;;;;;;5.93;4.03;;;13.70;99.90;;;14.15;100.00;95079.00;2251498;54;27203;-56
2021/08/20 03:52:15;;;;;;;5.57;3.72;;;13.80;99.90;;;14.32;100.00;95082.00;2263315;55;26153;-55
2021/08/20 03:55:01;;;;;;;5.43;4.28;;;13.90;99.90;;;14.44;100.00;95079.00;2497566;54;26598;-56
2021/08/20 03:57:49;;;;;;;5.23;4.30;;;14.00;99.90;;;14.52;100.00;95089.00;2264009;54;26774;-56
2021/08/20 04:00:37;;;;;;;5.85;4.78;;;14.00;99.90;;;14.56;100.00;95088.00;2263291;54;27147;-57
2021/08/20 04:03:25;;;;;;;5.37;4.18;;;14.10;99.90;;;14.65;100.00;95081.00;2263485;55;26716;-56
2021/08/20 04:06:12;;;;;;;6.30;4.20;;;14.10;99.90;;;14.65;100.00;95086.00;2263447;54;27340;-56
2021/08/20 04:08:58;;;;;;;5.68;3.60;;;14.10;99.90;;;14.59;100.00;95080.00;2263528;55;26569;-56
2021/08/20 04:11:44;;;;;;;4.95;3.83;;;14.00;99.90;;;14.55;100.00;95086.00;2263165;55;27214;-57
2021/08/20 04:17:28;;;;;;;4.28;3.87;;;14.00;99.90;;;14.64;100.00;95076.00;2479898;53;34677;-57
2021/08/20 04:20:14;;;;;;;4.78;3.65;;;14.00;99.90;;;14.49;100.00;95087.00;2264261;54;26861;-57
2021/08/20 04:23:01;;;;;;;5.20;4.00;;;14.00;99.90;;;14.44;100.00;95095.00;2465809;54;26721;-56
2021/08/20 04:25:47;;;;;;;4.05;3.65;;;13.90;99.90;;;14.36;100.00;95099.00;2243200;55;26789;-56
2021/08/20 04:31:29;;;;;;;6.83;4.10;;;13.90;99.90;;;14.42;100.00;95083.00;2408981;55;34558;-56
2021/08/20 04:34:16;;;;;;;5.32;4.05;;;13.80;99.90;;;14.18;100.00;95104.00;2413659;55;26555;-58
2021/08/20 04:37:03;;;;;;;4.32;3.92;;;13.80;99.90;;;14.17;100.00;95111.00;2216161;55;26584;-59
2021/08/20 04:39:49;;;;;;;6.62;4.60;;;13.80;99.90;;;14.32;100.00;95114.00;2438277;55;27272;-57
2021/08/20 04:42:37;;;;;;;5.22;4.10;;;13.90;99.90;;;14.43;100.00;95112.00;2215064;55;27018;-56
2021/08/20 04:45:24;;;;;;;5.65;3.97;;;14.00;99.90;;;14.50;100.00;95115.00;2214993;55;26816;-55
2021/08/20 04:51:07;;;;;;;5.80;4.20;;;14.10;99.90;;;14.66;100.00;95087.00;2423630;54;34368;-56
2021/08/20 04:53:54;;;;;;;8.98;4.30;;;14.10;99.90;;;14.52;100.00;95113.00;2205352;55;26659;-57
2021/08/20 04:56:40;;;;;;;5.20;4.25;;;14.10;99.90;;;14.51;100.00;95116.00;2385464;55;27073;-56
2021/08/20 05:02:24;;;;;;;7.32;4.68;;;14.10;99.90;;;14.70;100.00;95102.00;2447122;54;33747;-57
2021/08/20 05:05:12;;;;;;;7.53;4.87;;;14.20;99.90;;;14.71;100.00;95120.00;2411624;55;27231;-56
2021/08/20 05:08:00;;;;;;;6.47;4.50;;;14.30;99.90;;;14.78;100.00;95118.00;2193037;56;27354;-57
2021/08/20 05:10:46;;;;;;;5.43;4.45;;;14.30;99.90;;;14.74;100.00;95124.00;2193324;56;26611;-57
2021/08/20 05:13:33;;;;;;;5.05;3.92;;;14.40;99.90;;;14.91;100.00;95120.00;2193093;56;26180;-56
2021/08/20 05:16:19;;;;;;;5.93;4.47;;;14.40;99.90;;;15.00;100.00;95122.00;2192848;56;26642;-57
2021/08/20 05:19:06;;;;;;;5.57;3.83;;;14.60;99.90;;;15.15;100.00;95123.00;2193403;56;26934;-57
2021/08/20 05:21:53;;;;;;;9.07;4.50;;;14.70;99.90;;;15.26;100.00;95126.00;2412122;55;26792;-57
2021/08/20 05:24:39;;;;;;;4.85;4.30;;;14.70;99.90;;;15.30;100.00;95127.00;2191778;57;26928;-56
2021/08/20 05:27:26;;;;;;;5.22;4.20;;;14.70;99.90;;;15.25;100.00;95130.00;2191479;57;26794;-56
2021/08/20 05:30:14;;;;;;;4.80;4.30;;;14.80;99.90;;;15.24;100.00;95136.00;2192314;57;26705;-56
2021/08/20 05:33:01;;;;;;;5.78;4.25;;;14.80;99.90;;;15.44;100.00;95136.00;2411333;56;27626;-56
2021/08/20 05:35:47;;;;;;;8.02;4.20;;;14.80;99.90;;;15.29;100.00;95139.00;2191736;57;27421;-56
2021/08/20 05:38:34;;;;;;;5.95;4.55;;;14.80;99.90;;;15.27;100.00;95138.00;2424990;55;26799;-57
2021/08/20 05:44:17;;;;;;;6.22;4.60;;;15.00;99.90;;;15.61;100.00;95125.00;2413084;54;33909;-56
2021/08/20 05:47:04;;;;;;;5.28;4.45;;;15.10;99.90;;;15.80;100.00;95148.00;2200529;55;26681;-56
2021/08/20 05:49:51;;;;;;;5.50;4.60;;;15.20;99.90;;;15.79;100.00;95137.00;2459456;55;27215;-56
2021/08/20 05:52:38;;;;;;;5.93;4.47;;;15.30;99.90;;;15.92;100.00;95135.00;2235056;55;26853;-57
2021/08/20 05:55:25;;;;;;;6.37;4.60;;;15.40;99.90;;;16.05;100.00;95137.00;2462854;54;26104;-56
2021/08/20 06:01:09;;;;;;;7.15;4.87;;;15.70;99.90;;;16.49;100.00;95126.00;2387097;55;33919;-57
2021/08/20 06:06:51;;;;;;;7.15;4.28;;;15.90;99.90;;;16.93;100.00;95120.00;2431101;54;34331;-59
2021/08/20 06:09:37;;;;;;;5.47;4.15;;;16.20;99.90;;;17.04;100.00;95125.00;2424949;55;26614;-58
2021/08/20 06:12:24;;;;;;;7.30;4.30;;;16.30;99.90;;;16.95;100.00;95119.00;2420958;55;27329;-57
2021/08/20 06:15:13;;;;;;;6.05;4.10;;;16.50;99.90;;;17.32;100.00;95126.00;2221581;55;26667;-57
2021/08/20 06:17:59;;;;;;;5.85;4.00;;;16.80;99.90;;;17.64;100.00;95124.00;2465164;55;26782;-57
2021/08/20 06:20:46;;;;;;;6.80;4.22;;;16.90;99.90;;;17.86;100.00;95133.00;2237572;55;26740;-57
2021/08/20 06:23:32;;;;;;;4.62;4.15;;;17.00;99.90;;;17.95;100.00;95117.00;2464785;55;27283;-56
2021/08/20 06:26:19;;;;;;;6.30;4.25;;;16.80;99.90;;;17.56;100.00;95121.00;2236783;55;26762;-56
2021/08/20 06:29:05;;;;;;;7.25;4.40;;;16.90;99.90;;;17.69;100.00;95123.00;2464962;54;26929;-57
2021/08/20 06:34:48;;;;;;;4.28;3.87;;;20.10;99.90;;;23.54;100.00;95112.00;2389014;55;34403;-57
2021/08/20 06:37:35;;;;;;;5.97;4.90;;;22.30;99.90;;;25.38;100.00;95115.00;2140888;57;27544;-57
2021/08/20 06:40:21;;;;;;;5.97;4.00;;;23.00;99.90;;;25.33;100.00;95110.00;2345367;56;26840;-57
2021/08/20 06:46:04;;;;;;;4.22;3.80;;;23.90;99.90;;;26.26;100.00;95114.00;2455027;53;34973;-57
2021/08/20 06:48:51;;;;;;;4.37;3.92;;;23.60;99.90;;;25.29;100.00;95117.00;2242316;55;26594;-56
2021/08/20 06:51:39;;;;;;;5.20;3.92;;;22.60;99.90;;;23.32;100.00;95118.00;2503988;54;26761;-57
2021/08/20 06:54:26;;;;;;;5.68;4.50;;;21.60;99.90;;;22.02;100.00;95122.00;2267123;55;26600;-56
2021/08/20 06:57:13;;;;;;;5.03;4.12;;;21.00;99.90;;;21.75;100.00;95131.00;2502240;54;26742;-57
2021/08/20 07:02:55;;;;;;;5.03;4.50;;;21.10;99.90;;;21.13;100.00;95127.00;2431720;53;34132;-57
2021/08/20 07:05:42;;;;;;;6.60;4.47;;;19.90;99.90;;;20.17;100.00;95126.00;2207412;54;26584;-56
2021/08/20 07:08:28;;;;;;;5.62;4.28;;;19.40;99.90;;;20.01;100.00;95122.00;2436767;54;26102;-57
2021/08/20 07:11:15;;;;;;;5.57;4.50;;;19.40;99.90;;;19.97;100.00;95116.00;2213871;54;27251;-56
2021/08/20 07:14:01;;;;;;;5.05;4.37;;;19.20;99.90;;;19.91;100.00;95117.00;2436912;54;26718;-57
2021/08/20 07:16:47;;;;;;;6.10;5.18;;;19.30;99.90;;;20.26;100.00;95122.00;2199458;55;26854;-56
2021/08/20 07:19:34;;;;;;;4.95;4.45;;;19.40;99.90;;;20.31;100.00;95121.00;2189893;55;27284;-57
2021/08/20 07:22:20;;;;;;;5.75;4.70;;;19.50;99.90;;;20.59;100.00;95126.00;2437044;54;27181;-56
2021/08/20 07:25:09;;;;;;;7.80;4.82;;;19.80;99.90;;;20.88;100.00;95123.00;2436348;54;26214;-57
2021/08/20 07:27:55;;;;;;;4.43;4.03;;;20.20;99.90;;;21.36;100.00;95120.00;2212440;54;26770;-57
2021/08/20 07:30:41;;;;;;;5.72;4.45;;;20.40;99.90;;;21.66;100.00;95124.00;2213536;54;26562;-56
2021/08/20 07:33:28;;;;;;;6.28;4.70;;;20.10;99.90;;;20.82;100.00;95130.00;2212593;54;26764;-57
2021/08/20 07:36:15;;;;;;;5.50;4.28;;;20.00;99.90;;;20.78;100.00;95129.00;2213293;54;26798;-56
2021/08/20 07:39:01;;;;;;;5.82;4.62;;;20.10;99.90;;;20.90;100.00;95132.00;2213130;54;27295;-57
2021/08/20 07:41:47;;;;;;;5.28;4.32;;;20.20;99.90;;;21.13;100.00;95129.00;2437039;54;26803;-57
2021/08/20 07:44:34;;;;;;;5.97;4.45;;;20.00;99.90;;;20.90;100.00;95129.00;2437080;54;26804;-57
2021/08/20 07:47:20;;;;;;;6.03;4.50;;;20.40;99.90;;;21.26;100.00;95134.00;2213236;54;26652;-56
2021/08/20 07:50:08;;;;;;;4.78;4.25;;;20.50;99.90;;;21.46;100.00;95131.00;2407513;55;26815;-56
2021/08/20 07:52:55;;;;;;;5.62;4.80;;;21.00;99.90;;;22.22;100.00;95132.00;2188903;55;26848;-57
2021/08/20 07:55:41;;;;;;;5.50;4.25;;;21.30;99.90;;;22.65;100.00;95131.00;2188421;55;26776;-57
2021/08/20 07:58:28;;;;;;;7.37;4.47;;;21.50;99.90;;;23.16;100.00;95133.00;2188159;55;26254;-56
2021/08/20 08:04:11;;;;;;;5.07;4.57;;;22.10;99.90;;;23.78;100.00;95132.00;2432029;54;34103;-57
2021/08/20 08:06:58;;;;;;;5.45;4.85;;;22.00;99.90;;;23.52;100.00;95134.00;2203786;55;26844;-56
2021/08/20 08:09:44;;;;;;;5.60;4.80;;;23.10;99.90;;;24.74;100.00;95129.00;2403229;55;26724;-57
2021/08/20 08:12:31;;;;;;;5.75;4.80;;;24.30;99.90;;;26.54;100.00;95126.00;2182922;55;27320;-57
2021/08/20 08:15:17;;;;;;;5.57;4.37;;;25.60;99.90;;;27.99;100.00;95126.00;2182221;55;26795;-57
2021/08/20 08:18:03;;;;;;;5.37;4.47;;;26.30;99.90;;;28.59;100.00;95130.00;2465939;54;27281;-56
2021/08/20 08:20:50;;;;;;;5.68;4.70;;;27.50;99.90;;;30.05;100.00;95129.00;2464722;54;25572;-57
2021/08/20 08:23:38;;;;;;;7.47;4.95;;;27.80;99.90;;;30.77;95.81;95130.00;2237221;54;26831;-58
2021/08/20 08:26:25;;;;;;;4.97;4.50;;;28.50;99.90;;;30.81;96.30;95128.00;2464680;54;25591;-57
2021/08/20 08:29:12;;;;;;;5.15;4.60;;;28.80;99.90;;;31.11;96.22;95130.00;2236767;55;25628;-55
2021/08/20 08:31:59;;;;;;;5.07;4.57;;;28.80;99.90;;;31.30;91.60;95132.00;2237596;55;27290;-55
2021/08/20 08:34:47;;;;;;;5.78;5.15;;;28.60;99.90;;;30.25;92.71;95136.00;2237468;54;27560;-55
2021/08/20 08:37:37;;;;;;;4.57;4.18;;;27.80;99.90;;;29.08;98.51;95136.00;2237091;54;26852;-55
2021/08/20 08:40:23;;;;;;;5.15;4.65;;;27.50;99.90;;;29.22;100.00;95134.00;2238415;54;25517;-55
2021/08/20 08:43:11;;;;;;;6.85;5.00;;;26.50;99.90;;;28.12;100.00;95136.00;2238055;54;26675;-55
2021/08/20 08:46:01;;;;;;;5.90;4.50;;;26.00;99.90;;;27.28;100.00;95132.00;2238043;55;27780;-54
2021/08/20 08:48:48;;;;;;;6.82;4.60;;;25.70;99.90;;;27.08;100.00;95142.00;2230849;54;26497;-55
2021/08/20 08:51:35;;;;;;;6.20;4.72;;;25.40;99.90;;;26.98;100.00;95138.00;2216012;56;26931;-54
2021/08/20 08:54:21;;;;;;;4.90;4.30;;;25.20;99.90;;;26.34;100.00;95142.00;2215533;56;27308;-54
2021/08/20 08:57:08;;;;;;;5.70;4.53;;;24.80;99.90;;;25.28;100.00;95129.00;2216110;56;26720;-55
2021/08/20 09:02:50;;;;;;;7.47;4.70;;;24.20;99.90;;;24.60;100.00;95133.00;2469356;52;34089;-57
2021/08/20 09:05:45;;;;;;;6.05;4.47;;;23.70;99.90;;;24.61;100.00;95128.00;2216886;54;27541;-56
2021/08/20 09:08:32;;;;;;;4.80;4.30;;;23.50;99.90;;;24.28;100.00;95132.00;2226092;54;27363;-56
2021/08/20 09:11:26;;;;;;;5.10;4.43;;;23.30;99.90;;;23.71;100.00;95129.00;2217650;54;26708;-56
2021/08/20 09:17:14;;;;;;;5.75;4.37;;;23.40;99.90;;;24.79;100.00;95129.00;2524211;52;33945;-56
2021/08/20 09:20:19;;;;;;;4.80;4.28;;;23.90;99.90;;;25.05;100.00;95136.00;2243681;54;26679;-56
2021/08/20 09:23:22;;;;;;;4.87;4.20;;;24.20;99.90;;;25.61;100.00;95131.00;2244104;54;26643;-57
2021/08/20 09:26:09;;;;;;;5.18;4.62;;;24.90;99.90;;;26.52;100.00;95139.00;2244223;55;27200;-57
2021/08/20 09:29:11;;;;;;;5.20;4.70;;;24.80;99.90;;;25.61;100.00;95142.00;2243296;55;26766;-57
2021/08/20 09:32:00;;;;;;;5.93;4.50;;;23.90;99.90;;;24.57;100.00;95139.00;2472965;54;26687;-56
2021/08/20 09:34:50;;;;;;;5.53;4.60;;;24.00;99.90;;;25.51;100.00;95139.00;2265533;54;27230;-56
2021/08/20 09:37:38;;;;;;;5.70;4.95;;;25.70;99.90;;;27.90;100.00;95134.00;2264677;54;26728;-57
2021/08/20 09:40:26;;;;;;;4.90;4.47;;;26.60;99.90;;;28.71;100.00;95131.00;2472597;54;26609;-57
2021/08/20 09:43:19;;;;;;;5.57;4.85;;;27.20;99.90;;;29.68;100.00;95132.00;2243085;54;26746;-57
2021/08/20 09:46:08;;;;;;;5.05;4.40;;;27.70;99.90;;;29.74;96.59;95133.00;2242748;54;26724;-57
2021/08/20 09:48:59;;;;;;;6.28;4.45;;;27.20;99.90;;;28.71;97.04;95134.00;2450919;54;25606;-57
2021/08/20 09:51:48;;;;;;;4.03;3.55;;;28.40;99.90;;;30.19;100.00;95127.00;2219910;55;26719;-56
2021/08/20 09:54:42;;;;;;;4.75;4.22;;;28.40;99.90;;;29.72;96.01;95130.00;2466145;55;25730;-56
2021/08/20 09:57:29;;;;;;;4.65;3.72;;;28.80;99.90;;;30.38;99.18;95135.00;2237023;56;25710;-57
2021/08/20 10:00:17;;;;;;;5.43;4.07;;;28.80;99.90;;;30.67;95.41;95132.00;2467564;54;26935;-55
2021/08/20 10:03:06;;;;;;;4.75;3.97;;;28.40;99.90;;;29.89;98.22;95122.00;2239457;55;25594;-54
2021/08/20 10:05:53;;;;;;;3.90;3.55;;;28.70;99.90;;;29.86;96.88;95128.00;2467498;54;26082;-57
2021/08/20 10:08:40;;;;;;;4.37;3.95;;;28.60;99.90;;;30.20;99.79;95125.00;2238684;56;26715;-57
2021/08/20 10:11:27;;;;;;;4.55;3.87;;;29.30;99.90;;;30.77;92.96;95132.00;2237109;56;25683;-57
2021/08/20 10:14:15;;;;;;;4.10;3.75;;;29.90;99.90;;;31.09;83.91;95124.00;2466735;54;25250;-55
2021/08/20 10:17:02;;;;;;;4.90;3.80;;;30.20;99.90;;;31.21;78.92;95118.00;2238813;55;26706;-55
2021/08/20 10:22:44;;;;;;;3.75;3.28;;;29.30;99.90;;;31.19;93.20;95118.00;2390994;55;34410;-57
2021/08/20 10:25:32;;;;;;;3.90;3.50;;;29.30;99.90;;;30.63;89.72;95115.00;2153926;56;26690;-57
2021/08/20 10:28:19;;;;;;;4.45;3.97;;;30.00;99.90;;;31.50;96.53;95111.00;2373375;56;25698;-57
2021/08/20 10:31:05;;;;;;;3.42;3.12;;;29.80;99.90;;;30.93;62.80;95114.00;2155523;56;25688;-54
2021/08/20 10:33:52;;;;;;;4.20;3.80;;;29.20;99.90;;;30.23;83.70;95121.00;2159474;56;26853;-55
2021/08/20 10:36:40;;;;;;;3.97;3.00;;;29.80;99.90;;;31.14;83.88;95115.00;2378608;55;27192;-55
2021/08/20 10:39:27;;;;;;;4.35;3.45;;;29.70;99.90;;;31.04;81.84;95118.00;2164623;56;26937;-55
2021/08/20 10:42:16;;;;;;;3.60;3.30;;;28.80;99.90;;;29.63;85.50;95115.00;2378709;55;25078;-54
2021/08/20 10:45:08;;;;;;;3.28;2.97;;;28.20;99.90;;;28.95;92.97;95110.00;2165768;56;25694;-54
2021/08/20 10:51:57;;;;;;;3.10;2.80;;;26.00;99.90;;;26.43;97.15;95116.00;2360128;56;33574;-57
2021/08/20 10:58:11;;;;;;;3.60;3.30;;;25.50;99.90;;;27.34;100.00;95108.00;2409973;55;33571;-57
2021/08/20 11:00:58;;;;;;;3.83;3.53;;;26.40;99.90;;;28.31;100.00;95111.00;2169724;57;26956;-56
2021/08/20 11:03:49;;;;;;;3.87;3.30;;;26.80;99.90;;;28.13;100.00;95119.00;2385497;55;27175;-56
2021/08/20 11:06:55;;;;;;;3.60;3.30;;;26.60;99.90;;;27.57;100.00;95106.00;2175783;55;27383;-56
2021/08/20 11:09:43;;;;;;;5.07;3.40;;;27.10;99.90;;;28.54;95.14;95106.00;2178979;56;26809;-57
2021/08/20 11:12:41;;;;;;;3.72;3.17;;;27.80;99.90;;;28.94;88.69;95105.00;2190973;56;26655;-56
2021/08/20 11:15:47;;;;;;;3.65;3.10;;;28.10;99.90;;;28.46;95.97;95101.00;2190944;56;27246;-57
2021/08/20 11:18:45;;;;;;;4.95;3.10;;;28.50;99.90;;;29.00;87.10;95106.00;2190991;56;26593;-57
2021/08/20 11:21:44;;;;;;;4.45;3.00;;;28.40;99.90;;;28.29;79.82;95105.00;2187082;57;27190;-57
2021/08/20 11:24:31;;;;;;;4.45;3.00;;;28.10;99.90;;;28.29;84.96;95099.00;2404422;56;26632;-57
2021/08/20 11:30:18;;;;;;;3.67;3.28;;;28.40;99.90;;;28.70;86.91;95105.00;2461553;54;33818;-56
2021/08/20 11:36:26;;;;;;;3.60;3.30;;;27.50;99.90;;;27.47;96.02;95098.00;2439250;54;34374;-57
2021/08/20 11:39:14;;;;;;;3.10;2.62;;;27.40;99.90;;;27.39;98.69;95100.00;2220220;54;27186;-59
2021/08/20 11:45:23;;;;;;;3.62;2.97;;;27.30;99.90;;;27.53;95.19;95101.00;2482048;52;34409;-57
2021/08/20 11:48:09;;;;;;;3.70;3.30;;;26.70;99.90;;;27.12;95.55;95109.00;2480694;53;26879;-57
2021/08/20 11:50:59;;;;;;;3.92;2.85;;;26.20;99.90;;;26.58;94.49;95109.00;2269099;53;27266;-57
2021/08/20 11:53:49;;;;;;;4.35;3.22;;;25.70;99.90;;;26.07;95.87;95107.00;2504606;53;26115;-57
2021/08/20 11:56:36;;;;;;;4.22;3.20;;;25.40;99.90;;;26.06;100.00;95103.00;2268819;53;26111;-57
2021/08/20 11:59:23;;;;;;;5.47;2.95;;;25.20;99.90;;;25.80;98.06;95101.00;2473435;54;26638;-57
2021/08/20 12:02:19;;;;;;;2.72;2.53;;;24.90;99.90;;;25.46;98.19;95099.00;2243102;54;26972;-56
2021/08/20 12:08:16;;;;;;;4.07;3.10;;;24.60;99.90;;;25.68;100.00;95095.00;2436262;55;33980;-57
2021/08/20 12:11:04;;;;;;;4.90;3.62;;;24.90;99.90;;;25.88;100.00;95095.00;2410280;55;26126;-57
2021/08/20 12:13:53;;;;;;;4.85;3.30;;;24.80;99.90;;;25.47;95.89;95095.00;2191728;56;26713;-57
2021/08/20 12:16:41;;;;;;;3.78;3.17;;;24.90;99.90;;;25.75;100.00;95104.00;2191427;56;26180;-57
2021/08/20 12:19:30;;;;;;;3.60;3.30;;;25.20;99.90;;;26.01;100.00;95095.00;2209690;56;27003;-57
2021/08/20 12:22:16;;;;;;;10.50;3.28;;;25.70;99.90;;;26.22;93.90;95086.00;2209390;56;26694;-57
2021/08/20 12:25:15;;;;;;;3.37;3.05;;;26.30;99.90;;;27.03;96.81;95097.00;2452707;55;26871;-57
2021/08/20 12:28:12;;;;;;;3.85;3.12;;;26.90;99.90;;;27.75;98.35;95091.00;2230569;56;27493;-57
2021/08/20 12:31:06;;;;;;;4.03;3.25;;;26.70;99.90;;;27.41;97.83;95091.00;2230438;56;26579;-57
2021/08/20 12:34:02;;;;;;;3.20;2.90;;;26.50;99.90;;;27.15;100.00;95090.00;2230938;56;27376;-57
2021/08/20 12:36:55;;;;;;;3.15;2.85;;;26.10;99.90;;;26.55;100.00;95095.00;2227109;56;26988;-56
2021/08/20 12:39:43;;;;;;;3.42;2.92;;;26.60;99.90;;;27.13;100.00;95097.00;2234518;56;27273;-57
2021/08/20 12:42:29;;;;;;;3.60;2.80;;;26.60;99.90;;;27.23;88.20;95089.00;2234122;56;26722;-56
2021/08/20 12:45:18;;;;;;;3.37;3.08;;;27.00;99.90;;;27.79;100.00;95097.00;2234118;56;26922;-57
2021/08/20 12:48:08;;;;;;;3.60;3.10;;;27.00;99.90;;;27.52;90.72;95097.00;2225053;56;27283;-57
2021/08/20 12:51:00;;;;;;;3.22;2.92;;;27.20;99.90;;;27.80;92.24;95091.00;2409027;55;27445;-57
2021/08/20 12:54:00;;;;;;;3.75;2.95;;;27.40;99.90;;;27.99;87.84;95100.00;2432798;55;26672;-57
2021/08/20 12:56:48;;;;;;;3.35;2.90;;;27.00;99.90;;;27.59;89.64;95095.00;2209029;55;27974;-57
2021/08/20 12:59:35;;;;;;;3.35;2.90;;;27.20;99.90;;;27.70;87.98;95093.00;2209708;55;26713;-57